Terminal Aerodrome Forecast
Issued by NWS Denver/Boulder, CO

Home | Current Version | Previous Version | Text Only | Print | Product List | Glossary On
Versions: 1 2 3 4 5 6 7 8 9 10 11 12 13 14 15 16 17 18 19 20 21 22 23 24 25 26 27 28 29 30 31 32 33 34 35 36 37 38 39 40 41 42 43 44 45 46 47 48 49 50
000
FTUS45 KBOU 282255 AAB
TAFDEN
TAF AMD
KDEN 282255Z 2823/2924 08010KT P6SM VCTS SCT060CB BKN100
      TEMPO 2823/2901 -SHRA BKN060
     FM290100 07010KT P6SM VCSH SCT080 BKN120
     FM290400 20008KT P6SM SCT080 SCT120
     FM291000 23008KT P6SM VCSH SCT070 BKN120
     FM291600 01012KT P6SM SCT040 BKN080
      TEMPO 2917/2921 -SHRA BKN040=

USA.gov is the U.S. government's official web portal to all federal, state and local government web resources and services.